Προγνώσεις καιρού υψηλής ανάλυσης για την περιοχή του κόλπου Βουρβουρούς, με εξειδικευμένη μετεωρολογική επιμέλεια από τον μετεωρολόγο Χρήστο Χατζούδη και τη WeatherDom. Τα δεδομένα προσφέρουν αναλυτική εικόνα των καιρικών συνθηκών ενός μοντέλου με ανάλυση 1.7 χλμ .
Σποτ: Vourvourou - lat: 40.195978 long: 23.796046
Ενημέρωση πρόγνωσης: 04/09/2026 04:24
Ανατολή: 06:53 - Δύση: 19:53
Πρώτο φως: 05:54 - Τελευταίο φως: 20:53
04/09
Παρασκευή 4 Σεπτεμβρίου Ώρα Καιρός Θερμ. (°C) Υγρασία (%) Άνεμος (Knts) Ριπές (Knts) Διεύθ. 03:00 23° 70% 3 5
04:00 26° 66% 9 14
05:00 26° 69% 11 14
06:00 26° 71% 10 13
07:00 24° 79% 8 11
08:00 23° 78% 5 7
09:00 25° 67% 3 5
10:00 26° 64% 2 4
11:00 26° 64% 2 2
12:00 27° 52% 0 0
13:00 27° 48% 0 0
14:00 27° 51% 2 3
15:00 27° 48% 2 2
16:00 28° 52% 0 0
17:00 28° 56% 2 3
18:00 26° 88% 5 7
19:00 27° 69% 2 4
20:00 27° 70% 2 4
21:00 25° 66% 0 0
22:00 24° 58% 2 4
23:00 25° 49% 2 3
05/09
Σάββατο 5 Σεπτεμβρίου Ώρα Καιρός Θερμ. (°C) Υγρασία (%) Άνεμος (Knts) Ριπές (Knts) Διεύθ. 00:00 25° 54% 3 5
01:00 25° 57% 3 5
02:00 28° 51% 15 21
03:00 24° 70% 5 8
04:00 26° 62% 3 7
05:00 25° 62% 4 7
06:00 25° 62% 5 8
07:00 25° 60% 4 7
08:00 26° 57% 3 6
09:00 26° 55% 2 5
10:00 26° 52% 1 5
11:00 27° 50% 1 4
12:00 27° 47% 1 4
13:00 27° 46% 1 4
14:00 27° 46% 2 5
15:00 27° 45% 2 5
16:00 27° 46% 2 5
17:00 28° 47% 2 6
18:00 28° 48% 3 6
19:00 28° 51% 3 6
20:00 27° 53% 3 6
21:00 27° 56% 3 6
22:00 27° 56% 3 6
23:00 26° 56% 3 6
06/09
Κυριακή 6 Σεπτεμβρίου Ώρα Καιρός Θερμ. (°C) Υγρασία (%) Άνεμος (Knts) Ριπές (Knts) Διεύθ. 00:00 26° 56% 3 6
01:00 26° 55% 3 6
02:00 27° 54% 2 5
03:00 27° 51% 2 5
04:00 27° 51% 1 5
05:00 26° 51% 1 4
06:00 26° 51% 1 4
07:00 26° 52% 1 4
08:00 27° 53% 1 4
09:00 27° 54% 1 4
10:00 27° 52% 1 4
11:00 28° 49% 1 5
12:00 28° 47% 2 5
13:00 28° 46% 2 6
14:00 29° 46% 3 6
15:00 29° 45% 4 7
16:00 29° 48% 3 6
17:00 29° 51% 2 5
18:00 29° 54% 1 4
19:00 28° 57% 1 4
20:00 28° 59% 1 4
21:00 27° 62% 1 4
22:00 27° 60% 1 4
23:00 28° 57% 1 4
07/09
Δευτέρα 7 Σεπτεμβρίου Ώρα Καιρός Θερμ. (°C) Υγρασία (%) Άνεμος (Knts) Ριπές (Knts) Διεύθ. 00:00 28° 55% 1 4
01:00 27° 61% 4 8
02:00 27° 66% 8 12
03:00 26° 72% 11 16
04:00 26° 72% 11 16
05:00 25° 73% 10 15
06:00 25° 73% 10 15
07:00 25° 71% 9 15
08:00 26° 70% 9 14
09:00 26° 68% 9 14
10:00 26° 63% 10 15
11:00 27° 59% 11 17
12:00 27° 54% 12 18
13:00 27° 55% 12 17
14:00 26° 57% 11 17
15:00 26° 58% 11 16
16:00 26° 57% 9 14
17:00 27° 55% 8 12
18:00 27° 54% 6 10
19:00 27° 54% 4 8
20:00 26° 55% 2 6
21:00 26° 55% 1 4
22:00 26° 57% 5 8
23:00 25° 58% 8 13
08/09
Τρίτη 8 Σεπτεμβρίου Ώρα Καιρός Θερμ. (°C) Υγρασία (%) Άνεμος (Knts) Ριπές (Knts) Διεύθ. 00:00 25° 60% 12 17
01:00 25° 62% 10 15
02:00 24° 65% 9 13
03:00 24° 67% 7 11
04:00 24° 67% 8 13
05:00 23° 68% 10 14
06:00 23° 68% 11 16
07:00 23° 66% 10 15
08:00 24° 63% 10 15
09:00 24° 61% 9 14
10:00 24° 60% 9 15
11:00 24° 59% 10 15
12:00 24° 58% 11 16
13:00 24° 59% 11 16
14:00 25° 59% 11 16
15:00 25° 60% 11 16
16:00 25° 59% 9 14
17:00 25° 58% 8 12
18:00 25° 57% 6 10
19:00 25° 57% 4 8
20:00 24° 56% 2 7
21:00 24° 56% 2 5
22:00 24° 56% 1 5
23:00 24° 56% 1 4
09/09
Τετάρτη 9 Σεπτεμβρίου Ώρα Καιρός Θερμ. (°C) Υγρασία (%) Άνεμος (Knts) Ριπές (Knts) Διεύθ. 00:00 24° 56% 1 4
01:00 24° 57% 3 6
02:00 24° 58% 5 9
03:00 24° 59% 7 11
04:00 24° 60% 7 12
05:00 23° 62% 8 12
06:00 23° 63% 8 13
07:00 23° 63% 8 12
08:00 23° 63% 7 12
09:00 23° 63% 7 11
10:00 23° 63% 8 12
11:00 23° 62% 9 14
12:00 23° 62% 10 15
13:00 23° 62% 10 15
14:00 24° 63% 9 14
15:00 24° 63% 9 14
16:00 24° 62% 6 11
17:00 23° 62% 4 8
18:00 23° 61% 2 5
19:00 23° 62% 1 5
20:00 24° 62% 1 5
21:00 24° 63% 2 5
22:00 24° 63% 2 5
23:00 24° 63% 1 4
10/09
Πέμπτη 10 Σεπτεμβρίου Ώρα Καιρός Θερμ. (°C) Υγρασία (%) Άνεμος (Knts) Ριπές (Knts) Διεύθ. 00:00 24° 63% 1 4
01:00 24° 63% 1 4
02:00 24° 62% 1 4
03:00 24° 62% 1 4
04:00 23° 64% 3 6
05:00 23° 66% 4 8
06:00 22° 68% 6 10
07:00 22° 67% 6 9
08:00 23° 65% 5 9
09:00 23° 64% 5 8
10:00 23° 64% 5 8
11:00 23° 63% 5 8
12:00 23° 63% 5 8
13:00 23° 64% 5 8
14:00 23° 64% 4 7
15:00 23° 65% 4 7
16:00 23° 64% 3 7
17:00 24° 63% 3 6
18:00 24° 62% 3 6
19:00 24° 64% 2 6
20:00 24° 67% 2 6
21:00 24° 69% 3 6
22:00 24° 68% 2 5
23:00 24° 68% 2 5
11/09
Παρασκευή 11 Σεπτεμβρίου Ώρα Καιρός Θερμ. (°C) Υγρασία (%) Άνεμος (Knts) Ριπές (Knts) Διεύθ. 00:00 24° 67% 1 4
01:00 24° 66% 1 4
02:00 24° 66% 1 4
03:00 24° 65% 1 4
04:00 24° 66% 2 5
05:00 23° 68% 3 6
06:00 23° 69% 4 7
07:00 23° 68% 4 7
08:00 24° 68% 3 6
09:00 24° 67% 3 6
10:00 24° 68% 3 6
11:00 24° 68% 3 6
12:00 24° 69% 3 6
13:00 24° 67% 3 6
14:00 25° 66% 4 7
15:00 25° 64% 4 7
16:00 25° 64% 3 7
17:00 25° 64% 3 6
18:00 25° 64% 3 6
19:00 25° 67% 2 3
20:00 25° 69% 0 0
21:00 25° 72% 0 0
22:00 25° 72% 0 0
23:00 24° 71% 0 0
12/09
Σάββατο 12 Σεπτεμβρίου Ώρα Καιρός Θερμ. (°C) Υγρασία (%) Άνεμος (Knts) Ριπές (Knts) Διεύθ. 00:00 24° 71% 0 0
01:00 24° 70% 0 0
02:00 24° 70% 1 4
03:00 24° 69% 1 4
Developed by Rousis Dimitris - LinkedIn profile
Powered by: WeatherDom - Christos Chatzoudis
Πρόγνωση ανέμου — Vourvourou Ενημέρωση: 04/09 04:24 Ωριαία Ανά 3 ώρες
Ένταση 0 → 40 kt · μαύρη γραμμή = μέσος άνεμος, χρωματιστός φάκελος = ριπές